Time;durP1;ratioP1;P1;durP2;ratioP2;P2;SDS_P1;SDS_P2;PMS_P1;PMS_P2;Temp;Humidity;BMP_temperature;BMP_pressure;BME280_temperature;BME280_humidity;BME280_pressure;Samples;Min_cycle;Max_cycle;Signal;HPM_P1;HPM_P2
2022/02/15 00:02:12;;;;;;;;;;;7.60;94.90;;;;;;5088076;28;19912;-73
2022/02/15 00:04:37;;;;;;;;;;;7.60;95.00;;;;;;5087937;28;20377;-72
2022/02/15 00:07:03;;;;;;;;;;;7.70;94.80;;;;;;5087888;28;19982;-72
2022/02/15 00:09:28;;;;;;;;;;;7.70;94.80;;;;;;5086585;28;19912;-73
2022/02/15 00:11:54;;;;;;;;;;;7.70;94.80;;;;;;5087822;28;19999;-73
2022/02/15 00:14:20;;;;;;;;;;;7.70;94.80;;;;;;5087781;28;19931;-73
2022/02/15 00:16:46;;;;;;;;;;;7.80;95.10;;;;;;5087691;28;19921;-74
2022/02/15 00:19:12;;;;;;;;;;;7.80;94.90;;;;;;5086396;28;19954;-73
2022/02/15 00:21:38;;;;;;;;;;;7.80;94.90;;;;;;5086453;28;19912;-72
2022/02/15 00:24:03;;;;;;;;;;;7.80;94.90;;;;;;5087858;28;19920;-73
2022/02/15 00:26:29;;;;;;;;;;;7.80;94.80;;;;;;5086468;28;19916;-73
2022/02/15 00:28:56;;;;;;;;;;;7.80;94.80;;;;;;5087676;28;19915;-72
2022/02/15 00:31:22;;;;;;;;;;;7.80;94.90;;;;;;5087407;28;19920;-73
2022/02/15 00:33:48;;;;;;;;;;;7.80;94.90;;;;;;5087672;28;19908;-73
2022/02/15 00:36:15;;;;;;;;;;;7.80;94.90;;;;;;5087688;28;20270;-73
2022/02/15 00:38:41;;;;;;;;;;;7.80;94.90;;;;;;5087565;28;20296;-72
2022/02/15 00:41:07;;;;;;;;;;;7.80;94.90;;;;;;5087679;28;20042;-73
2022/02/15 00:43:34;;;;;;;;;;;7.80;94.90;;;;;;5087645;28;19913;-72
2022/02/15 00:45:59;;;;;;;;;;;7.80;94.90;;;;;;5087688;28;19928;-73
2022/02/15 00:48:25;;;;;;;;;;;7.80;94.90;;;;;;5089755;28;19912;-73
2022/02/15 00:50:50;;;;;;;;;;;7.80;94.90;;;;;;5091233;28;20019;-72
2022/02/15 00:53:16;;;;;;;;;;;7.80;94.90;;;;;;5091280;28;19919;-73
2022/02/15 00:55:42;;;;;;;;;;;7.70;94.90;;;;;;5091250;28;19958;-73
2022/02/15 00:58:07;;;;;;;;;;;7.70;95.00;;;;;;5091240;28;19908;-73
2022/02/15 01:00:33;;;;;;;;;;;7.60;95.00;;;;;;5091293;28;19962;-72
2022/02/15 01:02:58;;;;;;;;;;;7.60;95.10;;;;;;5089812;28;20374;-73
2022/02/15 01:05:24;;;;;;;;;;;7.60;95.30;;;;;;5091071;28;19982;-74
2022/02/15 01:07:50;;;;;;;;;;;7.60;95.40;;;;;;5090908;28;19912;-72
2022/02/15 01:10:16;;;;;;;;;;;7.70;95.60;;;;;;5090915;28;19961;-73
2022/02/15 01:12:42;;;;;;;;;;;7.70;95.60;;;;;;5090829;28;19916;-73
2022/02/15 01:15:08;;;;;;;;;;;7.80;95.70;;;;;;5089615;28;20312;-73
2022/02/15 01:17:33;;;;;;;;;;;7.80;95.70;;;;;;5089382;28;19908;-72
2022/02/15 01:20:00;;;;;;;;;;;7.90;95.80;;;;;;5090737;28;19961;-73
2022/02/15 01:22:25;;;;;;;;;;;7.90;95.80;;;;;;5090683;28;19999;-73
2022/02/15 01:24:51;;;;;;;;;;;8.00;95.80;;;;;;5090753;28;20340;-73
2022/02/15 01:27:17;;;;;;;;;;;7.90;95.70;;;;;;5089359;28;19942;-72
2022/02/15 01:29:42;;;;;;;;;;;7.90;95.70;;;;;;5090459;28;20016;-73
2022/02/15 01:32:08;;;;;;;;;;;7.90;95.80;;;;;;5090841;28;20380;-73
2022/02/15 01:34:33;;;;;;;;;;;7.90;95.90;;;;;;5090539;28;20316;-73
2022/02/15 01:36:59;;;;;;;;;;;7.90;96.00;;;;;;5090476;28;19970;-73
2022/02/15 01:39:24;;;;;;;;;;;7.90;96.10;;;;;;5090422;28;20414;-73
2022/02/15 01:41:50;;;;;;;;;;;8.00;96.20;;;;;;5090390;28;19923;-73
2022/02/15 01:44:18;;;;;;;;;;;8.00;96.20;;;;;;5090308;28;20022;-72
2022/02/15 01:46:44;;;;;;;;;;;8.10;96.20;;;;;;5090282;28;19912;-72
2022/02/15 01:49:10;;;;;;;;;;;8.10;96.20;;;;;;5090197;28;20290;-73
2022/02/15 01:51:35;;;;;;;;;;;8.20;96.20;;;;;;5089959;28;19955;-73
2022/02/15 01:54:01;;;;;;;;;;;8.20;96.30;;;;;;5090137;28;19912;-72
2022/02/15 01:56:27;;;;;;;;;;;8.20;96.30;;;;;;5090019;28;19922;-73
2022/02/15 01:58:55;;;;;;;;;;;8.20;96.30;;;;;;5089537;28;20014;-73
2022/02/15 02:01:21;;;;;;;;;;;8.30;96.40;;;;;;5089872;28;20118;-73
2022/02/15 02:03:47;;;;;;;;;;;8.30;96.40;;;;;;5090031;28;19935;-73
2022/02/15 02:06:12;;;;;;;;;;;8.30;96.50;;;;;;5089854;28;19912;-73
2022/02/15 02:08:38;;;;;;;;;;;8.30;96.50;;;;;;5089789;28;19915;-73
2022/02/15 02:11:03;;;;;;;;;;;8.30;96.60;;;;;;5089676;28;20524;-73
2022/02/15 02:13:29;;;;;;;;;;;8.30;96.60;;;;;;5089597;28;20324;-73
2022/02/15 02:15:55;;;;;;;;;;;8.30;96.70;;;;;;5089728;28;20449;-72
2022/02/15 02:18:20;;;;;;;;;;;8.30;96.80;;;;;;5089635;28;20394;-72
2022/02/15 02:20:46;;;;;;;;;;;8.30;96.90;;;;;;5089590;28;19988;-73
2022/02/15 02:23:13;;;;;;;;;;;8.30;97.00;;;;;;5089682;28;20346;-74
2022/02/15 02:25:38;;;;;;;;;;;8.30;97.20;;;;;;5089680;28;19915;-72
2022/02/15 02:28:04;;;;;;;;;;;8.30;97.30;;;;;;5089589;28;20297;-73
2022/02/15 02:30:29;;;;;;;;;;;8.30;97.50;;;;;;5089148;28;20194;-74
2022/02/15 02:32:55;;;;;;;;;;;8.20;97.70;;;;;;5089367;28;19916;-73
2022/02/15 02:35:22;;;;;;;;;;;8.20;97.90;;;;;;5089843;28;20332;-73
2022/02/15 02:37:48;;;;;;;;;;;8.30;98.30;;;;;;5089293;28;19921;-74
2022/02/15 02:40:13;;;;;;;;;;;8.30;98.60;;;;;;5089251;28;19912;-72
2022/02/15 02:42:40;;;;;;;;;;;8.40;98.80;;;;;;5089249;28;19914;-73
2022/02/15 02:45:16;;;;;;;;;;;8.30;98.90;;;;;;5089106;28;19908;-72
2022/02/15 02:47:45;;;;;;;;;;;8.30;99.10;;;;;;5089115;28;19912;-73
2022/02/15 02:50:12;;;;;;;;;;;8.30;99.30;;;;;;5088902;28;19915;-72
2022/02/15 02:52:37;;;;;;;;;;;8.40;99.40;;;;;;5088978;28;19967;-74
2022/02/15 02:55:03;;;;;;;;;;;8.50;99.60;;;;;;5089206;28;20334;-73
2022/02/15 02:57:29;;;;;;;;;;;8.50;99.70;;;;;;5088973;28;20313;-73
2022/02/15 02:59:54;;;;;;;;;;;8.50;99.70;;;;;;5087596;28;20520;-73
2022/02/15 03:02:20;;;;;;;;;;;8.60;99.80;;;;;;5088819;28;19923;-72
2022/02/15 03:04:46;;;;;;;;;;;8.60;99.90;;;;;;5088941;28;20388;-73
2022/02/15 03:07:11;;;;;;;;;;;8.70;99.90;;;;;;5088802;28;20428;-74
2022/02/15 03:09:37;;;;;;;;;;;8.70;99.90;;;;;;5088683;28;19959;-73
2022/02/15 03:12:03;;;;;;;;;;;8.80;99.90;;;;;;5087662;28;19913;-73
2022/02/15 03:14:29;;;;;;;;;;;8.80;99.90;;;;;;5088636;28;19912;-73
2022/02/15 03:16:55;;;;;;;;;;;8.90;99.90;;;;;;5088639;28;19939;-73
2022/02/15 03:19:20;;;;;;;;;;;8.90;99.90;;;;;;5088514;28;20247;-73
2022/02/15 03:21:46;;;;;;;;;;;9.00;99.90;;;;;;5088556;28;20373;-73
2022/02/15 03:24:11;;;;;;;;;;;9.10;99.90;;;;;;5088477;28;19987;-74
2022/02/15 03:26:37;;;;;;;;;;;9.10;99.90;;;;;;5088740;28;19916;-72
2022/02/15 03:29:03;;;;;;;;;;;9.20;99.90;;;;;;5088376;28;19931;-74
2022/02/15 03:31:29;;;;;;;;;;;9.20;99.90;;;;;;5088130;28;19950;-72
2022/02/15 03:33:54;;;;;;;;;;;9.20;99.90;;;;;;5088375;28;19912;-73
2022/02/15 03:36:20;;;;;;;;;;;9.20;99.90;;;;;;5086955;28;19916;-73
2022/02/15 03:38:45;;;;;;;;;;;9.20;99.90;;;;;;5088401;28;19915;-73
2022/02/15 03:43:55;;;;;;;;;;;9.30;99.90;;;;;;5088245;28;19915;-73
2022/02/15 03:46:21;;;;;;;;;;;9.30;99.90;;;;;;5088067;28;20003;-73
2022/02/15 03:48:47;;;;;;;;;;;9.30;99.90;;;;;;5088026;28;19908;-73
2022/02/15 03:51:13;;;;;;;;;;;9.30;99.90;;;;;;5087900;28;20334;-73
2022/02/15 03:53:38;;;;;;;;;;;9.40;99.90;;;;;;5088105;28;19909;-73
2022/02/15 03:56:04;;;;;;;;;;;9.40;99.90;;;;;;5088166;28;19913;-72
2022/02/15 03:58:30;;;;;;;;;;;9.50;99.90;;;;;;5088038;28;19916;-73
2022/02/15 04:00:55;;;;;;;;;;;9.50;99.90;;;;;;5086677;28;20367;-73
2022/02/15 04:03:21;;;;;;;;;;;9.50;99.90;;;;;;5087963;28;19938;-74
2022/02/15 04:05:46;;;;;;;;;;;9.50;99.90;;;;;;5087883;28;19989;-74
2022/02/15 04:08:12;;;;;;;;;;;9.40;99.90;;;;;;5087923;28;20244;-73
2022/02/15 04:10:37;;;;;;;;;;;9.40;99.90;;;;;;5088471;28;19913;-73
2022/02/15 04:13:03;;;;;;;;;;;9.40;99.90;;;;;;5086489;28;19916;-72
2022/02/15 04:15:29;;;;;;;;;;;9.40;99.90;;;;;;5087851;28;20467;-73
2022/02/15 04:17:54;;;;;;;;;;;9.40;99.90;;;;;;5087834;28;20317;-73
2022/02/15 04:20:20;;;;;;;;;;;9.40;99.90;;;;;;5087724;28;20402;-73
2022/02/15 04:22:46;;;;;;;;;;;9.40;99.90;;;;;;5089117;28;19962;-73
2022/02/15 04:25:11;;;;;;;;;;;9.40;99.90;;;;;;5091889;28;19908;-74
2022/02/15 04:27:37;;;;;;;;;;;9.40;99.90;;;;;;5090230;28;19912;-73
2022/02/15 04:30:04;;;;;;;;;;;9.40;99.90;;;;;;5091441;28;20368;-74
2022/02/15 04:32:29;;;;;;;;;;;9.40;99.90;;;;;;5090269;28;19969;-73
2022/02/15 04:34:55;;;;;;;;;;;9.30;99.90;;;;;;5090452;28;19916;-74
2022/02/15 04:37:21;;;;;;;;;;;9.30;99.90;;;;;;5091598;28;19920;-73
2022/02/15 04:39:47;;;;;;;;;;;9.30;99.90;;;;;;5090477;28;19912;-74
2022/02/15 04:42:12;;;;;;;;;;;9.30;99.90;;;;;;5091460;28;19911;-73
2022/02/15 04:44:38;;;;;;;;;;;9.40;99.90;;;;;;5089974;28;19920;-74
2022/02/15 04:47:04;;;;;;;;;;;9.40;99.90;;;;;;5091365;28;19915;-73
2022/02/15 04:49:29;;;;;;;;;;;9.40;99.90;;;;;;5091278;28;19940;-74
2022/02/15 04:51:55;;;;;;;;;;;9.50;99.90;;;;;;5089887;28;19922;-73
2022/02/15 04:54:22;;;;;;;;;;;9.50;99.90;;;;;;5091143;28;19935;-73
2022/02/15 04:56:51;;;;;;;;;;;9.60;99.90;;;;;;5091248;28;19908;-72
2022/02/15 04:59:17;;;;;;;;;;;9.60;99.90;;;;;;5090870;28;19995;-73
2022/02/15 05:01:42;;;;;;;;;;;9.60;99.90;;;;;;5089743;28;20394;-72
2022/02/15 05:06:52;;;;;;;;;;;9.70;99.90;;;;;;5091509;28;19930;-73
2022/02/15 05:09:17;;;;;;;;;;;9.70;99.90;;;;;;5091029;28;19912;-73
2022/02/15 05:11:43;;;;;;;;;;;9.70;99.90;;;;;;5090900;28;20329;-74
2022/02/15 05:14:09;;;;;;;;;;;9.70;99.90;;;;;;5090855;28;19923;-74
2022/02/15 05:16:34;;;;;;;;;;;9.60;99.90;;;;;;5090979;28;20053;-73
2022/02/15 05:19:00;;;;;;;;;;;9.70;99.90;;;;;;5090811;28;19912;-74
2022/02/15 05:21:25;;;;;;;;;;;9.70;99.90;;;;;;5090799;28;19920;-74
2022/02/15 05:23:52;;;;;;;;;;;9.70;99.90;;;;;;5089399;28;20350;-73
2022/02/15 05:26:17;;;;;;;;;;;9.80;99.90;;;;;;5090728;28;19970;-73
2022/02/15 05:28:43;;;;;;;;;;;9.80;99.90;;;;;;5090718;28;19911;-74
2022/02/15 05:31:09;;;;;;;;;;;9.80;99.90;;;;;;5090450;28;20343;-74
2022/02/15 05:33:37;;;;;;;;;;;9.70;99.90;;;;;;5089262;28;20462;-74
2022/02/15 05:36:02;;;;;;;;;;;9.70;99.90;;;;;;5088591;28;19986;-73
2022/02/15 05:38:28;;;;;;;;;;;9.70;99.90;;;;;;5090500;28;19995;-73
2022/02/15 05:40:53;;;;;;;;;;;9.60;99.90;;;;;;5090753;28;19908;-73
2022/02/15 05:43:19;;;;;;;;;;;9.60;99.90;;;;;;5090528;28;20266;-73
2022/02/15 05:45:45;;;;;;;;;;;9.60;99.90;;;;;;5090670;28;19920;-73
2022/02/15 05:48:10;;;;;;;;;;;9.50;99.90;;;;;;5090298;28;20353;-72
2022/02/15 05:50:51;;;;;;;;;;;9.50;99.90;;;;;;5089934;28;20002;-73
2022/02/15 05:53:18;;;;;;;;;;;9.50;99.90;;;;;;5090030;28;19920;-73
2022/02/15 05:55:43;;;;;;;;;;;9.50;99.90;;;;;;5090000;28;19915;-72
2022/02/15 05:58:09;;;;;;;;;;;9.50;99.90;;;;;;5090026;28;19916;-73
2022/02/15 06:00:35;;;;;;;;;;;9.50;99.90;;;;;;5089946;28;19916;-73
2022/02/15 06:03:00;;;;;;;;;;;9.40;99.90;;;;;;5089889;28;19916;-74
2022/02/15 06:05:28;;;;;;;;;;;9.40;99.90;;;;;;5089884;28;19936;-72
2022/02/15 06:07:53;;;;;;;;;;;9.40;99.90;;;;;;5089761;28;19966;-73
2022/02/15 06:10:19;;;;;;;;;;;9.40;99.90;;;;;;5089713;28;19908;-73
2022/02/15 06:12:44;;;;;;;;;;;9.30;99.90;;;;;;5089530;28;20369;-73
2022/02/15 06:15:11;;;;;;;;;;;9.30;99.90;;;;;;5089753;28;19912;-73
2022/02/15 06:17:37;;;;;;;;;;;9.30;99.90;;;;;;5089594;28;20259;-73
2022/02/15 06:20:03;;;;;;;;;;;9.20;99.90;;;;;;5089620;28;19996;-73
2022/02/15 06:22:28;;;;;;;;;;;9.20;99.90;;;;;;5089532;28;20404;-73
2022/02/15 06:24:54;;;;;;;;;;;9.20;99.90;;;;;;5089477;28;20362;-73
2022/02/15 06:27:19;;;;;;;;;;;9.20;99.90;;;;;;5089391;28;19920;-73
2022/02/15 06:29:45;;;;;;;;;;;9.10;99.90;;;;;;5089157;28;19912;-73
2022/02/15 06:32:11;;;;;;;;;;;9.10;99.90;;;;;;5089149;28;19931;-73
2022/02/15 06:34:37;;;;;;;;;;;9.10;99.90;;;;;;5089171;28;19916;-73
2022/02/15 06:37:03;;;;;;;;;;;9.00;99.90;;;;;;5088015;28;20429;-73
2022/02/15 06:39:28;;;;;;;;;;;9.00;99.90;;;;;;5089226;28;19916;-73
2022/02/15 06:41:54;;;;;;;;;;;9.00;99.90;;;;;;5087979;28;20310;-73
2022/02/15 06:44:20;;;;;;;;;;;9.00;99.90;;;;;;5089208;28;19923;-73
2022/02/15 06:46:45;;;;;;;;;;;9.00;99.90;;;;;;5088914;28;19971;-73
2022/02/15 06:49:11;;;;;;;;;;;9.00;99.90;;;;;;5088957;28;19915;-73
2022/02/15 06:51:36;;;;;;;;;;;9.00;99.90;;;;;;5088798;28;19916;-73
2022/02/15 06:54:02;;;;;;;;;;;9.00;99.90;;;;;;5088757;28;19918;-73
2022/02/15 06:56:27;;;;;;;;;;;9.00;99.90;;;;;;5088917;28;19973;-72
2022/02/15 06:58:53;;;;;;;;;;;9.00;99.90;;;;;;5088500;28;19923;-72
2022/02/15 07:01:19;;;;;;;;;;;8.90;99.90;;;;;;5088748;28;19916;-74
2022/02/15 07:03:44;;;;;;;;;;;8.90;99.90;;;;;;5087294;28;20369;-72
2022/02/15 07:06:10;;;;;;;;;;;8.90;99.90;;;;;;5088669;28;19916;-73
2022/02/15 07:08:35;;;;;;;;;;;8.90;99.90;;;;;;5087493;28;20352;-72
2022/02/15 07:11:01;;;;;;;;;;;8.80;99.90;;;;;;5087081;28;20384;-73
2022/02/15 07:13:27;;;;;;;;;;;8.80;99.90;;;;;;5088339;28;19916;-73
2022/02/15 07:15:53;;;;;;;;;;;8.70;99.90;;;;;;5088492;28;20313;-73
2022/02/15 07:18:18;;;;;;;;;;;8.70;99.90;;;;;;5088470;28;19932;-73
2022/02/15 07:20:44;;;;;;;;;;;8.60;99.90;;;;;;5088179;28;19912;-72
2022/02/15 07:23:10;;;;;;;;;;;8.60;99.90;;;;;;5088375;28;19920;-73
2022/02/15 07:25:37;;;;;;;;;;;8.50;99.90;;;;;;5087900;28;20271;-73
2022/02/15 07:28:03;;;;;;;;;;;8.50;99.90;;;;;;5087812;28;19909;-73
2022/02/15 07:30:29;;;;;;;;;;;8.50;99.90;;;;;;5087484;28;19965;-73
2022/02/15 07:32:55;;;;;;;;;;;8.50;99.90;;;;;;5087987;28;19912;-73
2022/02/15 07:35:21;;;;;;;;;;;8.50;99.90;;;;;;5088330;28;19973;-72
2022/02/15 07:37:47;;;;;;;;;;;8.60;99.90;;;;;;5088035;28;19912;-72
2022/02/15 07:40:13;;;;;;;;;;;8.60;99.90;;;;;;5088329;28;19916;-73
2022/02/15 07:42:39;;;;;;;;;;;8.50;99.90;;;;;;5087695;28;20370;-73
2022/02/15 07:45:04;;;;;;;;;;;8.50;99.90;;;;;;5087907;28;20007;-73
2022/02/15 07:47:30;;;;;;;;;;;8.50;99.90;;;;;;5087833;28;19916;-76
2022/02/15 07:49:55;;;;;;;;;;;8.50;99.90;;;;;;5086204;28;20410;-73
2022/02/15 07:52:21;;;;;;;;;;;8.60;99.90;;;;;;5087653;28;19927;-73
2022/02/15 07:54:47;;;;;;;;;;;8.50;99.90;;;;;;5087805;28;19908;-73
2022/02/15 07:57:12;;;;;;;;;;;8.50;99.90;;;;;;5087140;28;19990;-73
2022/02/15 07:59:38;;;;;;;;;;;8.50;99.90;;;;;;5087027;28;19919;-73
2022/02/15 08:02:03;;;;;;;;;;;8.50;99.90;;;;;;5087456;28;20463;-74
2022/02/15 08:04:29;;;;;;;;;;;8.60;99.90;;;;;;5086281;28;20362;-73
2022/02/15 08:06:55;;;;;;;;;;;8.60;99.90;;;;;;5087556;28;19965;-73
2022/02/15 08:09:22;;;;;;;;;;;8.60;99.90;;;;;;5087730;28;19920;-73
2022/02/15 08:11:54;;;;;;;;;;;8.50;99.90;;;;;;5087240;28;20004;-70
2022/02/15 08:14:20;;;;;;;;;;;8.50;99.80;;;;;;5086104;28;19916;-74
2022/02/15 08:16:45;;;;;;;;;;;8.50;99.80;;;;;;5087832;28;19919;-74
2022/02/15 08:19:11;;;;;;;;;;;8.40;99.70;;;;;;5087491;28;19951;-74
2022/02/15 08:21:37;;;;;;;;;;;8.50;99.70;;;;;;5085751;28;19981;-73
2022/02/15 08:24:02;;;;;;;;;;;8.50;99.70;;;;;;5087206;28;20022;-74
2022/02/15 08:26:28;;;;;;;;;;;8.50;99.60;;;;;;5087127;28;19916;-74
2022/02/15 08:28:53;;;;;;;;;;;8.50;99.50;;;;;;5084727;28;19912;-72
2022/02/15 08:31:19;;;;;;;;;;;8.50;99.40;;;;;;5085965;28;19924;-74
2022/02/15 08:33:45;;;;;;;;;;;8.50;99.30;;;;;;5086453;28;19956;-74
2022/02/15 08:36:10;;;;;;;;;;;8.50;99.30;;;;;;5086183;28;20278;-73
2022/02/15 08:38:36;;;;;;;;;;;8.60;99.20;;;;;;5086773;28;19919;-73
2022/02/15 08:41:02;;;;;;;;;;;8.60;99.20;;;;;;5086173;28;20366;-73
2022/02/15 08:43:28;;;;;;;;;;;8.60;99.00;;;;;;5086735;28;19944;-73
2022/02/15 08:45:53;;;;;;;;;;;8.70;99.00;;;;;;5087046;28;20336;-73
2022/02/15 08:48:19;;;;;;;;;;;8.70;98.90;;;;;;5086949;28;20003;-72
2022/02/15 08:50:44;;;;;;;;;;;8.60;98.80;;;;;;5085148;28;19939;-73
2022/02/15 08:53:10;;;;;;;;;;;8.70;98.70;;;;;;5086182;28;19935;-74
2022/02/15 08:55:36;;;;;;;;;;;8.70;98.60;;;;;;5086169;28;19920;-73
2022/02/15 08:58:01;;;;;;;;;;;8.70;98.60;;;;;;5086511;28;19909;-72
2022/02/15 09:00:27;;;;;;;;;;;8.70;98.60;;;;;;5086595;28;19912;-73
2022/02/15 09:02:52;;;;;;;;;;;8.70;98.50;;;;;;5085729;28;20014;-73
2022/02/15 09:05:18;;;;;;;;;;;8.70;98.40;;;;;;5086573;28;20299;-73
2022/02/15 09:07:43;;;;;;;;;;;8.70;98.40;;;;;;5086837;28;19916;-73
2022/02/15 09:10:09;;;;;;;;;;;8.70;98.30;;;;;;5088302;28;19919;-73
2022/02/15 09:12:35;;;;;;;;;;;8.70;98.30;;;;;;5091211;28;19912;-73
2022/02/15 09:15:01;;;;;;;;;;;8.80;98.30;;;;;;5090355;28;20034;-73
2022/02/15 09:17:27;;;;;;;;;;;8.80;98.30;;;;;;5090242;28;19908;-73
2022/02/15 09:19:52;;;;;;;;;;;8.90;98.20;;;;;;5090257;28;19912;-73
2022/02/15 09:22:18;;;;;;;;;;;8.90;98.10;;;;;;5089948;28;19923;-73
2022/02/15 09:24:45;;;;;;;;;;;8.90;98.00;;;;;;5089865;28;19957;-73
2022/02/15 09:27:10;;;;;;;;;;;9.00;98.00;;;;;;5088814;28;19912;-74
2022/02/15 09:29:36;;;;;;;;;;;9.00;98.00;;;;;;5088339;28;19924;-73
2022/02/15 09:32:01;;;;;;;;;;;9.00;98.00;;;;;;5089603;28;20008;-73
2022/02/15 09:34:27;;;;;;;;;;;9.00;98.00;;;;;;5089508;28;19935;-74
2022/02/15 09:36:53;;;;;;;;;;;9.10;97.90;;;;;;5089310;28;19937;-74
2022/02/15 09:39:19;;;;;;;;;;;9.10;97.90;;;;;;5083481;28;20406;-73
2022/02/15 09:41:46;;;;;;;;;;;9.10;97.90;;;;;;5090262;28;20019;-74
2022/02/15 09:44:11;;;;;;;;;;;9.10;97.90;;;;;;5090011;28;19925;-73
2022/02/15 09:46:37;;;;;;;;;;;9.10;97.90;;;;;;5088648;28;19908;-73
2022/02/15 09:49:03;;;;;;;;;;;9.10;97.90;;;;;;5089570;28;20366;-74
2022/02/15 09:51:29;;;;;;;;;;;9.10;97.80;;;;;;5089592;28;19916;-73
2022/02/15 09:53:55;;;;;;;;;;;9.10;97.80;;;;;;5089496;28;20411;-73
2022/02/15 09:56:20;;;;;;;;;;;9.10;97.80;;;;;;5089084;28;19919;-73
2022/02/15 09:58:46;;;;;;;;;;;9.10;97.90;;;;;;5088845;28;20355;-73
2022/02/15 10:01:12;;;;;;;;;;;9.10;97.90;;;;;;5089433;28;19935;-73
2022/02/15 10:04:00;;;;;;;;;;;9.20;97.90;;;;;;5087757;28;19934;-73
2022/02/15 10:06:29;;;;;;;;;;;9.20;97.90;;;;;;5087666;28;20254;-73
2022/02/15 10:09:03;;;;;;;;;;;9.20;97.70;;;;;;5089528;28;19946;-74
2022/02/15 10:11:39;;;;;;;;;;;9.20;97.60;;;;;;5089403;28;19911;-71
2022/02/15 10:14:05;;;;;;;;;;;9.20;97.70;;;;;;5089202;28;19912;-73
2022/02/15 10:16:31;;;;;;;;;;;9.20;97.70;;;;;;5087930;28;19916;-73
2022/02/15 10:18:57;;;;;;;;;;;9.20;97.70;;;;;;5089262;28;20003;-72
2022/02/15 10:21:26;;;;;;;;;;;9.30;97.60;;;;;;5088950;28;19908;-72
2022/02/15 10:23:52;;;;;;;;;;;9.30;97.60;;;;;;5088895;28;19995;-73
2022/02/15 10:26:17;;;;;;;;;;;9.30;97.60;;;;;;5089076;28;20318;-73
2022/02/15 10:28:43;;;;;;;;;;;9.40;97.50;;;;;;5088845;28;19945;-73
2022/02/15 10:31:13;;;;;;;;;;;9.40;97.60;;;;;;5088854;28;20231;-74
2022/02/15 10:33:40;;;;;;;;;;;9.60;97.60;;;;;;5087854;28;20059;-74
2022/02/15 10:36:07;;;;;;;;;;;9.70;97.70;;;;;;5089839;28;19919;-74
2022/02/15 10:38:36;;;;;;;;;;;9.90;97.50;;;;;;5089905;28;19984;-74
2022/02/15 10:41:08;;;;;;;;;;;10.00;97.30;;;;;;5087963;28;19912;-73
2022/02/15 10:43:41;;;;;;;;;;;10.20;97.20;;;;;;5087243;28;19908;-73
2022/02/15 10:46:19;;;;;;;;;;;10.20;97.00;;;;;;5089067;28;19908;-74
2022/02/15 10:48:48;;;;;;;;;;;10.30;96.90;;;;;;5088755;28;19961;-73
2022/02/15 10:51:14;;;;;;;;;;;10.50;97.00;;;;;;5088360;28;20282;-73
2022/02/15 10:53:40;;;;;;;;;;;10.80;96.80;;;;;;5088769;28;19912;-74
2022/02/15 10:56:06;;;;;;;;;;;10.90;96.50;;;;;;5088936;28;19920;-74
2022/02/15 10:58:41;;;;;;;;;;;11.00;96.20;;;;;;5088043;28;19999;-71
2022/02/15 11:01:08;;;;;;;;;;;11.10;96.30;;;;;;5086768;28;19924;-75
2022/02/15 11:03:35;;;;;;;;;;;11.30;96.00;;;;;;5088657;28;19908;-73
2022/02/15 11:06:01;;;;;;;;;;;11.30;95.60;;;;;;5088728;28;19966;-74
2022/02/15 11:08:27;;;;;;;;;;;11.40;95.40;;;;;;5088944;28;19912;-74
2022/02/15 11:11:14;;;;;;;;;;;11.40;95.50;;;;;;5089075;28;19916;-74
2022/02/15 11:13:40;;;;;;;;;;;11.50;95.40;;;;;;5087731;28;19995;-74
2022/02/15 11:16:19;;;;;;;;;;;11.50;95.00;;;;;;5089829;28;19993;-72
2022/02/15 11:18:45;;;;;;;;;;;11.50;94.70;;;;;;5088674;28;19908;-72
2022/02/15 11:21:22;;;;;;;;;;;11.40;94.50;;;;;;5088572;28;19916;-72
2022/02/15 11:23:58;;;;;;;;;;;11.30;94.40;;;;;;5086163;28;20029;-73
2022/02/15 11:26:30;;;;;;;;;;;11.20;94.60;;;;;;5087385;28;19933;-72
2022/02/15 11:28:56;;;;;;;;;;;11.20;94.40;;;;;;5088444;28;19961;-73
2022/02/15 11:31:26;;;;;;;;;;;11.10;94.30;;;;;;5087683;28;20043;-70
2022/02/15 11:33:53;;;;;;;;;;;11.10;94.50;;;;;;5084335;28;20364;-72
2022/02/15 11:36:23;;;;;;;;;;;11.10;94.70;;;;;;5087132;28;20354;-72
2022/02/15 11:38:56;;;;;;;;;;;11.10;94.80;;;;;;5085386;28;19912;-72
2022/02/15 11:41:22;;;;;;;;;;;11.20;94.90;;;;;;5088217;28;19995;-72
2022/02/15 11:43:58;;;;;;;;;;;11.30;94.70;;;;;;5088095;28;20052;-74
2022/02/15 11:46:31;;;;;;;;;;;11.30;94.40;;;;;;5088099;28;19908;-72
2022/02/15 11:49:07;;;;;;;;;;;11.30;94.60;;;;;;5086981;28;19926;-72
2022/02/15 11:51:33;;;;;;;;;;;11.40;94.30;;;;;;5086002;28;20029;-70
2022/02/15 11:54:00;;;;;;;;;;;11.30;94.30;;;;;;5087959;28;20321;-72
2022/02/15 11:56:25;;;;;;;;;;;11.40;94.40;;;;;;5087474;28;19920;-72
2022/02/15 11:58:51;;;;;;;;;;;11.40;94.30;;;;;;5087446;28;19912;-72
2022/02/15 12:01:27;;;;;;;;;;;11.40;94.40;;;;;;5084908;28;20398;-72
2022/02/15 12:03:54;;;;;;;;;;;11.40;94.20;;;;;;5085181;28;20559;-72
2022/02/15 12:06:20;;;;;;;;;;;11.50;94.50;;;;;;5086455;28;19916;-72
2022/02/15 12:08:52;;;;;;;;;;;11.50;94.00;;;;;;5087732;28;19955;-73
2022/02/15 12:11:19;;;;;;;;;;;11.50;94.00;;;;;;5087332;28;19916;-71
2022/02/15 12:13:46;;;;;;;;;;;11.50;94.00;;;;;;5086990;28;19938;-73
2022/02/15 12:16:12;;;;;;;;;;;11.50;94.20;;;;;;5087287;28;19908;-73
2022/02/15 12:18:39;;;;;;;;;;;11.70;94.20;;;;;;5069404;28;19912;-73
2022/02/15 12:21:05;;;;;;;;;;;11.80;94.30;;;;;;5087915;28;19916;-72
2022/02/15 12:23:30;;;;;;;;;;;11.80;94.10;;;;;;5088054;28;20538;-72
2022/02/15 12:25:56;;;;;;;;;;;11.90;94.10;;;;;;5086597;28;20604;-73
2022/02/15 12:28:22;;;;;;;;;;;12.00;94.00;;;;;;5087056;28;19919;-74
2022/02/15 12:30:55;;;;;;;;;;;12.10;94.10;;;;;;5087602;28;19920;-72
2022/02/15 12:33:21;;;;;;;;;;;12.20;94.00;;;;;;5069465;28;20338;-72
2022/02/15 12:35:57;;;;;;;;;;;12.20;93.80;;;;;;5084638;28;20036;-73
2022/02/15 12:38:23;;;;;;;;;;;12.20;93.60;;;;;;5086007;28;19962;-74
2022/02/15 12:40:49;;;;;;;;;;;12.20;93.30;;;;;;5085628;28;19928;-73
2022/02/15 12:43:15;;;;;;;;;;;12.10;92.70;;;;;;5087923;28;19939;-72
2022/02/15 12:45:46;;;;;;;;;;;12.00;92.70;;;;;;5091119;28;19916;-71
2022/02/15 12:48:12;;;;;;;;;;;11.90;92.70;;;;;;5090808;28;19909;-73
2022/02/15 12:50:38;;;;;;;;;;;11.80;92.90;;;;;;5090979;28;20427;-74
2022/02/15 12:53:03;;;;;;;;;;;11.80;93.10;;;;;;5091300;28;20550;-73
2022/02/15 12:55:31;;;;;;;;;;;11.80;92.90;;;;;;5070220;28;19917;-74
2022/02/15 12:57:56;;;;;;;;;;;11.80;93.00;;;;;;5088268;28;21164;-73
2022/02/15 13:00:24;;;;;;;;;;;11.80;93.10;;;;;;5087081;28;19915;-73
2022/02/15 13:02:51;;;;;;;;;;;11.70;92.80;;;;;;5090172;28;19923;-73
2022/02/15 13:05:21;;;;;;;;;;;11.70;92.80;;;;;;5089428;28;19912;-73
2022/02/15 13:07:50;;;;;;;;;;;11.70;92.70;;;;;;5088338;28;19947;-74
2022/02/15 13:10:20;;;;;;;;;;;11.70;92.70;;;;;;5089707;28;19909;-73
2022/02/15 13:12:46;;;;;;;;;;;11.70;92.80;;;;;;5090666;28;19951;-73
2022/02/15 13:15:12;;;;;;;;;;;11.70;92.50;;;;;;5090579;28;19954;-73
2022/02/15 13:17:38;;;;;;;;;;;11.70;92.40;;;;;;5090334;28;19919;-73
2022/02/15 13:20:13;;;;;;;;;;;11.70;92.40;;;;;;5090729;28;20348;-73
2022/02/15 13:22:39;;;;;;;;;;;11.70;92.20;;;;;;5090423;28;19908;-73
2022/02/15 13:25:05;;;;;;;;;;;11.60;92.30;;;;;;5088774;28;20324;-73
2022/02/15 13:27:32;;;;;;;;;;;11.60;92.40;;;;;;5088629;28;19957;-73
2022/02/15 13:29:58;;;;;;;;;;;11.60;92.00;;;;;;5090213;28;19962;-72
2022/02/15 13:32:35;;;;;;;;;;;11.60;92.10;;;;;;5088803;28;19920;-74
2022/02/15 13:35:02;;;;;;;;;;;11.60;92.10;;;;;;5089007;28;19935;-71
2022/02/15 13:37:35;;;;;;;;;;;11.70;92.30;;;;;;5088454;28;19908;-73
2022/02/15 13:40:01;;;;;;;;;;;11.70;92.20;;;;;;5089688;28;20117;-73
2022/02/15 13:42:27;;;;;;;;;;;11.70;92.20;;;;;;5090167;28;19987;-74
2022/02/15 13:44:54;;;;;;;;;;;11.80;92.20;;;;;;5089994;28;19908;-72
2022/02/15 13:47:19;;;;;;;;;;;11.80;91.90;;;;;;5090112;28;19919;-73
2022/02/15 13:49:45;;;;;;;;;;;11.80;91.70;;;;;;5089665;28;19912;-74
2022/02/15 13:52:11;;;;;;;;;;;11.80;91.40;;;;;;5088497;28;19959;-73
2022/02/15 13:54:36;;;;;;;;;;;11.70;91.60;;;;;;5089621;28;20052;-74
2022/02/15 13:57:03;;;;;;;;;;;11.70;91.40;;;;;;5089793;28;20502;-73
2022/02/15 13:59:28;;;;;;;;;;;11.70;91.30;;;;;;5089919;28;19919;-74
2022/02/15 14:01:54;;;;;;;;;;;11.70;91.40;;;;;;5089841;28;19912;-72
2022/02/15 14:04:26;;;;;;;;;;;11.60;91.50;;;;;;5089470;28;20681;-75
2022/02/15 14:07:03;;;;;;;;;;;11.60;91.60;;;;;;5089763;28;19987;-74
2022/02/15 14:09:31;;;;;;;;;;;11.70;91.60;;;;;;5089956;28;19940;-73
2022/02/15 14:11:57;;;;;;;;;;;11.60;91.70;;;;;;5090052;28;20049;-72
2022/02/15 14:14:23;;;;;;;;;;;11.60;91.70;;;;;;5090359;28;20061;-74
2022/02/15 14:16:49;;;;;;;;;;;11.60;91.70;;;;;;5090335;28;19916;-71
2022/02/15 14:19:15;;;;;;;;;;;11.60;91.70;;;;;;5090275;28;19908;-74
2022/02/15 14:21:40;;;;;;;;;;;11.50;91.70;;;;;;5090306;28;19927;-73
2022/02/15 14:24:06;;;;;;;;;;;11.60;91.80;;;;;;5089965;28;19927;-75
2022/02/15 14:26:33;;;;;;;;;;;11.60;91.70;;;;;;5090244;28;19973;-74
2022/02/15 14:28:59;;;;;;;;;;;11.50;91.80;;;;;;5090464;28;19908;-73